sensor_id;sensor_type;location;lat;lon;timestamp;P1;durP1;ratioP1;P2;durP2;ratioP2
58139;SDS011;53185;47.378;18.922;2023-07-09T00:00:48;15.10;;;7.82;;
58139;SDS011;53185;47.378;18.922;2023-07-09T00:03:17;12.77;;;7.53;;
58139;SDS011;53185;47.378;18.922;2023-07-09T00:05:46;10.70;;;7.47;;
58139;SDS011;53185;47.378;18.922;2023-07-09T00:08:36;16.23;;;6.93;;
58139;SDS011;53185;47.378;18.922;2023-07-09T00:11:03;10.82;;;7.37;;
58139;SDS011;53185;47.378;18.922;2023-07-09T00:13:30;13.50;;;6.72;;
58139;SDS011;53185;47.378;18.922;2023-07-09T00:15:59;11.82;;;7.35;;
58139;SDS011;53185;47.378;18.922;2023-07-09T00:18:29;11.35;;;6.55;;
58139;SDS011;53185;47.378;18.922;2023-07-09T00:20:57;11.80;;;6.82;;
58139;SDS011;53185;47.378;18.922;2023-07-09T00:23:26;12.30;;;6.65;;
58139;SDS011;53185;47.378;18.922;2023-07-09T00:25:55;18.45;;;7.15;;
58139;SDS011;53185;47.378;18.922;2023-07-09T00:28:23;12.98;;;7.62;;
58139;SDS011;53185;47.378;18.922;2023-07-09T00:30:51;14.48;;;6.82;;
58139;SDS011;53185;47.378;18.922;2023-07-09T00:33:19;14.18;;;6.68;;
58139;SDS011;53185;47.378;18.922;2023-07-09T00:35:47;12.48;;;7.07;;
58139;SDS011;53185;47.378;18.922;2023-07-09T00:38:18;10.68;;;6.90;;
58139;SDS011;53185;47.378;18.922;2023-07-09T00:41:05;9.63;;;6.90;;
58139;SDS011;53185;47.378;18.922;2023-07-09T00:43:35;13.52;;;6.85;;
58139;SDS011;53185;47.378;18.922;2023-07-09T00:49:01;9.93;;;6.18;;
58139;SDS011;53185;47.378;18.922;2023-07-09T00:51:33;14.13;;;6.60;;
58139;SDS011;53185;47.378;18.922;2023-07-09T00:54:07;15.93;;;6.22;;
58139;SDS011;53185;47.378;18.922;2023-07-09T00:56:42;8.10;;;5.65;;
58139;SDS011;53185;47.378;18.922;2023-07-09T00:59:13;13.88;;;6.82;;
58139;SDS011;53185;47.378;18.922;2023-07-09T01:01:43;13.40;;;6.05;;
58139;SDS011;53185;47.378;18.922;2023-07-09T01:04:11;16.85;;;7.03;;
58139;SDS011;53185;47.378;18.922;2023-07-09T01:06:43;13.95;;;6.57;;
58139;SDS011;53185;47.378;18.922;2023-07-09T01:09:13;8.70;;;5.80;;
58139;SDS011;53185;47.378;18.922;2023-07-09T01:11:42;15.60;;;5.80;;
58139;SDS011;53185;47.378;18.922;2023-07-09T01:14:12;12.50;;;6.90;;
58139;SDS011;53185;47.378;18.922;2023-07-09T01:16:52;15.38;;;6.90;;
58139;SDS011;53185;47.378;18.922;2023-07-09T01:19:25;11.20;;;6.72;;
58139;SDS011;53185;47.378;18.922;2023-07-09T01:21:56;12.05;;;7.12;;
58139;SDS011;53185;47.378;18.922;2023-07-09T01:27:22;13.70;;;6.50;;
58139;SDS011;53185;47.378;18.922;2023-07-09T01:29:55;12.65;;;6.32;;
58139;SDS011;53185;47.378;18.922;2023-07-09T01:32:24;10.00;;;6.20;;
58139;SDS011;53185;47.378;18.922;2023-07-09T01:34:57;13.53;;;6.00;;
58139;SDS011;53185;47.378;18.922;2023-07-09T01:37:34;10.30;;;6.10;;
58139;SDS011;53185;47.378;18.922;2023-07-09T01:40:03;8.50;;;5.80;;
58139;SDS011;53185;47.378;18.922;2023-07-09T01:42:43;9.15;;;5.97;;
58139;SDS011;53185;47.378;18.922;2023-07-09T01:45:13;11.35;;;6.00;;
58139;SDS011;53185;47.378;18.922;2023-07-09T01:50:12;11.10;;;5.70;;
58139;SDS011;53185;47.378;18.922;2023-07-09T01:52:41;10.55;;;6.03;;
58139;SDS011;53185;47.378;18.922;2023-07-09T01:55:12;11.05;;;5.78;;
58139;SDS011;53185;47.378;18.922;2023-07-09T01:57:42;8.88;;;5.68;;
58139;SDS011;53185;47.378;18.922;2023-07-09T02:00:12;14.32;;;6.57;;
58139;SDS011;53185;47.378;18.922;2023-07-09T02:02:44;10.98;;;5.82;;
58139;SDS011;53185;47.378;18.922;2023-07-09T02:05:17;12.48;;;5.70;;
58139;SDS011;53185;47.378;18.922;2023-07-09T02:07:45;9.68;;;5.65;;
58139;SDS011;53185;47.378;18.922;2023-07-09T02:10:14;14.60;;;6.03;;
58139;SDS011;53185;47.378;18.922;2023-07-09T02:12:43;10.07;;;5.75;;
58139;SDS011;53185;47.378;18.922;2023-07-09T02:15:11;7.22;;;5.90;;
58139;SDS011;53185;47.378;18.922;2023-07-09T02:17:39;8.23;;;5.37;;
58139;SDS011;53185;47.378;18.922;2023-07-09T02:20:07;11.23;;;6.32;;
58139;SDS011;53185;47.378;18.922;2023-07-09T02:22:37;6.70;;;5.75;;
58139;SDS011;53185;47.378;18.922;2023-07-09T02:25:05;8.38;;;5.40;;
58139;SDS011;53185;47.378;18.922;2023-07-09T02:27:35;8.45;;;5.37;;
58139;SDS011;53185;47.378;18.922;2023-07-09T02:30:04;9.27;;;5.65;;
58139;SDS011;53185;47.378;18.922;2023-07-09T02:32:33;14.05;;;5.68;;
58139;SDS011;53185;47.378;18.922;2023-07-09T02:35:01;11.98;;;6.40;;
58139;SDS011;53185;47.378;18.922;2023-07-09T02:37:28;13.68;;;6.30;;
58139;SDS011;53185;47.378;18.922;2023-07-09T02:39:56;9.52;;;5.72;;
58139;SDS011;53185;47.378;18.922;2023-07-09T02:42:24;9.40;;;5.40;;
58139;SDS011;53185;47.378;18.922;2023-07-09T02:44:51;9.45;;;5.45;;
58139;SDS011;53185;47.378;18.922;2023-07-09T02:47:21;7.20;;;5.25;;
58139;SDS011;53185;47.378;18.922;2023-07-09T02:49:48;10.50;;;6.03;;
58139;SDS011;53185;47.378;18.922;2023-07-09T02:52:15;10.23;;;6.07;;
58139;SDS011;53185;47.378;18.922;2023-07-09T02:54:43;12.73;;;5.78;;
58139;SDS011;53185;47.378;18.922;2023-07-09T02:57:11;7.57;;;5.82;;
58139;SDS011;53185;47.378;18.922;2023-07-09T02:59:38;14.98;;;6.12;;
58139;SDS011;53185;47.378;18.922;2023-07-09T03:02:06;9.00;;;5.65;;
58139;SDS011;53185;47.378;18.922;2023-07-09T03:04:33;8.65;;;5.90;;
58139;SDS011;53185;47.378;18.922;2023-07-09T03:07:01;9.05;;;6.07;;
58139;SDS011;53185;47.378;18.922;2023-07-09T03:09:28;9.13;;;6.00;;
58139;SDS011;53185;47.378;18.922;2023-07-09T03:11:56;9.63;;;5.70;;
58139;SDS011;53185;47.378;18.922;2023-07-09T03:14:24;10.20;;;5.68;;
58139;SDS011;53185;47.378;18.922;2023-07-09T03:16:51;8.13;;;5.07;;
58139;SDS011;53185;47.378;18.922;2023-07-09T03:19:19;8.65;;;4.90;;
58139;SDS011;53185;47.378;18.922;2023-07-09T03:21:46;9.05;;;5.80;;
58139;SDS011;53185;47.378;18.922;2023-07-09T03:24:14;8.27;;;5.53;;
58139;SDS011;53185;47.378;18.922;2023-07-09T03:26:46;12.60;;;6.43;;
58139;SDS011;53185;47.378;18.922;2023-07-09T03:29:14;10.32;;;5.53;;
58139;SDS011;53185;47.378;18.922;2023-07-09T03:31:41;10.00;;;5.90;;
58139;SDS011;53185;47.378;18.922;2023-07-09T03:34:09;9.65;;;5.70;;
58139;SDS011;53185;47.378;18.922;2023-07-09T03:36:37;10.23;;;5.82;;
58139;SDS011;53185;47.378;18.922;2023-07-09T03:39:05;7.47;;;5.45;;
58139;SDS011;53185;47.378;18.922;2023-07-09T03:41:33;7.45;;;5.87;;
58139;SDS011;53185;47.378;18.922;2023-07-09T03:44:01;15.07;;;6.18;;
58139;SDS011;53185;47.378;18.922;2023-07-09T03:46:30;9.00;;;5.70;;
58139;SDS011;53185;47.378;18.922;2023-07-09T03:48:58;9.05;;;5.75;;
58139;SDS011;53185;47.378;18.922;2023-07-09T03:51:25;7.72;;;5.53;;
58139;SDS011;53185;47.378;18.922;2023-07-09T03:53:54;10.15;;;6.28;;
58139;SDS011;53185;47.378;18.922;2023-07-09T03:56:23;9.98;;;6.22;;
58139;SDS011;53185;47.378;18.922;2023-07-09T03:58:53;12.35;;;6.28;;
58139;SDS011;53185;47.378;18.922;2023-07-09T04:01:20;12.55;;;5.05;;
58139;SDS011;53185;47.378;18.922;2023-07-09T04:03:47;13.73;;;6.12;;
58139;SDS011;53185;47.378;18.922;2023-07-09T04:06:14;6.35;;;4.85;;
58139;SDS011;53185;47.378;18.922;2023-07-09T04:08:42;9.68;;;5.45;;
58139;SDS011;53185;47.378;18.922;2023-07-09T04:11:10;7.75;;;5.32;;
58139;SDS011;53185;47.378;18.922;2023-07-09T04:13:37;8.65;;;5.85;;
58139;SDS011;53185;47.378;18.922;2023-07-09T04:16:07;7.53;;;5.30;;
58139;SDS011;53185;47.378;18.922;2023-07-09T04:18:35;8.55;;;5.20;;
58139;SDS011;53185;47.378;18.922;2023-07-09T04:21:02;12.57;;;5.00;;
58139;SDS011;53185;47.378;18.922;2023-07-09T04:23:30;5.60;;;4.82;;
58139;SDS011;53185;47.378;18.922;2023-07-09T04:25:58;7.57;;;5.65;;
58139;SDS011;53185;47.378;18.922;2023-07-09T04:28:25;10.38;;;6.87;;
58139;SDS011;53185;47.378;18.922;2023-07-09T04:30:53;10.73;;;7.22;;
58139;SDS011;53185;47.378;18.922;2023-07-09T04:33:21;10.32;;;5.60;;
58139;SDS011;53185;47.378;18.922;2023-07-09T04:35:51;9.30;;;5.40;;
58139;SDS011;53185;47.378;18.922;2023-07-09T04:38:19;9.88;;;5.47;;
58139;SDS011;53185;47.378;18.922;2023-07-09T04:40:47;13.48;;;5.68;;
58139;SDS011;53185;47.378;18.922;2023-07-09T04:43:14;10.38;;;7.30;;
58139;SDS011;53185;47.378;18.922;2023-07-09T04:45:42;8.50;;;5.37;;
58139;SDS011;53185;47.378;18.922;2023-07-09T04:48:09;11.18;;;5.78;;
58139;SDS011;53185;47.378;18.922;2023-07-09T04:50:36;10.57;;;5.53;;
58139;SDS011;53185;47.378;18.922;2023-07-09T04:53:04;7.90;;;5.37;;
58139;SDS011;53185;47.378;18.922;2023-07-09T04:55:31;9.77;;;5.20;;
58139;SDS011;53185;47.378;18.922;2023-07-09T04:57:59;9.65;;;5.62;;
58139;SDS011;53185;47.378;18.922;2023-07-09T05:00:26;10.20;;;5.30;;
58139;SDS011;53185;47.378;18.922;2023-07-09T05:02:57;7.65;;;5.20;;
58139;SDS011;53185;47.378;18.922;2023-07-09T05:05:24;14.30;;;5.87;;
58139;SDS011;53185;47.378;18.922;2023-07-09T05:07:51;6.55;;;4.90;;
58139;SDS011;53185;47.378;18.922;2023-07-09T05:10:20;10.18;;;5.80;;
58139;SDS011;53185;47.378;18.922;2023-07-09T05:12:48;8.50;;;4.80;;
58139;SDS011;53185;47.378;18.922;2023-07-09T05:15:19;13.18;;;4.87;;
58139;SDS011;53185;47.378;18.922;2023-07-09T05:17:47;10.70;;;4.80;;
58139;SDS011;53185;47.378;18.922;2023-07-09T05:20:15;8.40;;;4.25;;
58139;SDS011;53185;47.378;18.922;2023-07-09T05:22:43;8.57;;;5.47;;
58139;SDS011;53185;47.378;18.922;2023-07-09T05:25:10;8.75;;;4.28;;
58139;SDS011;53185;47.378;18.922;2023-07-09T05:27:39;6.12;;;4.05;;
58139;SDS011;53185;47.378;18.922;2023-07-09T05:30:06;12.77;;;4.28;;
58139;SDS011;53185;47.378;18.922;2023-07-09T05:32:35;10.15;;;4.70;;
58139;SDS011;53185;47.378;18.922;2023-07-09T05:35:03;5.57;;;3.75;;
58139;SDS011;53185;47.378;18.922;2023-07-09T05:37:31;8.15;;;3.87;;
58139;SDS011;53185;47.378;18.922;2023-07-09T05:39:59;5.90;;;3.60;;
58139;SDS011;53185;47.378;18.922;2023-07-09T05:42:27;4.95;;;3.45;;
58139;SDS011;53185;47.378;18.922;2023-07-09T05:44:54;8.85;;;3.50;;
58139;SDS011;53185;47.378;18.922;2023-07-09T05:47:22;3.92;;;3.15;;
58139;SDS011;53185;47.378;18.922;2023-07-09T05:49:49;4.18;;;3.15;;
58139;SDS011;53185;47.378;18.922;2023-07-09T05:52:19;4.68;;;3.30;;
58139;SDS011;53185;47.378;18.922;2023-07-09T05:54:50;6.00;;;3.25;;
58139;SDS011;53185;47.378;18.922;2023-07-09T05:57:18;4.40;;;3.47;;
58139;SDS011;53185;47.378;18.922;2023-07-09T05:59:46;8.63;;;3.22;;
58139;SDS011;53185;47.378;18.922;2023-07-09T06:04:45;4.45;;;3.37;;
58139;SDS011;53185;47.378;18.922;2023-07-09T06:07:13;7.47;;;3.45;;
58139;SDS011;53185;47.378;18.922;2023-07-09T06:09:43;4.95;;;3.72;;
58139;SDS011;53185;47.378;18.922;2023-07-09T06:12:11;8.07;;;3.60;;
58139;SDS011;53185;47.378;18.922;2023-07-09T06:14:38;8.48;;;3.40;;
58139;SDS011;53185;47.378;18.922;2023-07-09T06:17:07;5.07;;;3.70;;
58139;SDS011;53185;47.378;18.922;2023-07-09T06:19:35;6.55;;;3.65;;
58139;SDS011;53185;47.378;18.922;2023-07-09T06:22:02;5.32;;;3.15;;
58139;SDS011;53185;47.378;18.922;2023-07-09T06:24:31;6.20;;;3.53;;
58139;SDS011;53185;47.378;18.922;2023-07-09T06:26:59;4.87;;;3.17;;
58139;SDS011;53185;47.378;18.922;2023-07-09T06:29:27;5.22;;;3.50;;
58139;SDS011;53185;47.378;18.922;2023-07-09T06:31:54;5.13;;;3.37;;
58139;SDS011;53185;47.378;18.922;2023-07-09T06:34:21;6.78;;;2.97;;
58139;SDS011;53185;47.378;18.922;2023-07-09T06:36:48;3.53;;;3.00;;
58139;SDS011;53185;47.378;18.922;2023-07-09T06:39:18;7.20;;;3.08;;
58139;SDS011;53185;47.378;18.922;2023-07-09T06:41:46;3.92;;;2.72;;
58139;SDS011;53185;47.378;18.922;2023-07-09T06:44:24;5.28;;;2.78;;
58139;SDS011;53185;47.378;18.922;2023-07-09T06:46:52;5.35;;;3.30;;
58139;SDS011;53185;47.378;18.922;2023-07-09T06:49:20;3.62;;;2.65;;
58139;SDS011;53185;47.378;18.922;2023-07-09T06:51:47;12.05;;;2.72;;
58139;SDS011;53185;47.378;18.922;2023-07-09T06:54:14;2.78;;;2.28;;
58139;SDS011;53185;47.378;18.922;2023-07-09T06:56:42;4.07;;;2.60;;
58139;SDS011;53185;47.378;18.922;2023-07-09T06:59:09;3.87;;;2.78;;
58139;SDS011;53185;47.378;18.922;2023-07-09T07:08:59;3.17;;;2.87;;
58139;SDS011;53185;47.378;18.922;2023-07-09T07:11:28;5.18;;;2.92;;
58139;SDS011;53185;47.378;18.922;2023-07-09T07:13:57;4.00;;;3.05;;
58139;SDS011;53185;47.378;18.922;2023-07-09T07:16:25;2.83;;;2.37;;
58139;SDS011;53185;47.378;18.922;2023-07-09T07:18:52;6.22;;;3.20;;
58139;SDS011;53185;47.378;18.922;2023-07-09T07:21:20;6.97;;;3.25;;
58139;SDS011;53185;47.378;18.922;2023-07-09T07:23:47;9.40;;;4.53;;
58139;SDS011;53185;47.378;18.922;2023-07-09T07:26:15;4.65;;;2.90;;
58139;SDS011;53185;47.378;18.922;2023-07-09T07:28:45;6.35;;;2.87;;
58139;SDS011;53185;47.378;18.922;2023-07-09T07:31:13;10.05;;;2.92;;
58139;SDS011;53185;47.378;18.922;2023-07-09T07:33:41;5.18;;;2.78;;
58139;SDS011;53185;47.378;18.922;2023-07-09T07:36:08;4.68;;;2.72;;
58139;SDS011;53185;47.378;18.922;2023-07-09T07:38:57;3.28;;;2.60;;
58139;SDS011;53185;47.378;18.922;2023-07-09T07:43:54;6.30;;;2.67;;
58139;SDS011;53185;47.378;18.922;2023-07-09T07:48:50;4.43;;;2.67;;
58139;SDS011;53185;47.378;18.922;2023-07-09T07:54:47;6.80;;;2.50;;
58139;SDS011;53185;47.378;18.922;2023-07-09T07:57:15;5.87;;;2.53;;
58139;SDS011;53185;47.378;18.922;2023-07-09T08:02:13;10.40;;;3.17;;
58139;SDS011;53185;47.378;18.922;2023-07-09T08:04:42;4.87;;;3.25;;
58139;SDS011;53185;47.378;18.922;2023-07-09T08:09:37;3.78;;;2.80;;
58139;SDS011;53185;47.378;18.922;2023-07-09T08:12:07;13.38;;;9.02;;
58139;SDS011;53185;47.378;18.922;2023-07-09T08:14:44;6.82;;;3.33;;
58139;SDS011;53185;47.378;18.922;2023-07-09T08:17:12;3.75;;;2.87;;
58139;SDS011;53185;47.378;18.922;2023-07-09T08:22:18;4.07;;;2.42;;
58139;SDS011;53185;47.378;18.922;2023-07-09T08:24:48;11.55;;;4.90;;
58139;SDS011;53185;47.378;18.922;2023-07-09T08:27:17;3.20;;;2.60;;
58139;SDS011;53185;47.378;18.922;2023-07-09T08:29:46;6.12;;;2.50;;
58139;SDS011;53185;47.378;18.922;2023-07-09T08:32:14;5.18;;;2.47;;
58139;SDS011;53185;47.378;18.922;2023-07-09T08:34:43;4.78;;;2.50;;
58139;SDS011;53185;47.378;18.922;2023-07-09T08:37:30;6.35;;;2.83;;
58139;SDS011;53185;47.378;18.922;2023-07-09T08:46:00;4.93;;;2.80;;
58139;SDS011;53185;47.378;18.922;2023-07-09T08:52:33;3.35;;;2.65;;
58139;SDS011;53185;47.378;18.922;2023-07-09T08:55:12;3.28;;;2.60;;
58139;SDS011;53185;47.378;18.922;2023-07-09T08:57:47;3.87;;;2.75;;
58139;SDS011;53185;47.378;18.922;2023-07-09T09:05:49;5.87;;;2.60;;
58139;SDS011;53185;47.378;18.922;2023-07-09T09:11:23;3.20;;;2.67;;
58139;SDS011;53185;47.378;18.922;2023-07-09T09:13:59;3.55;;;2.50;;
58139;SDS011;53185;47.378;18.922;2023-07-09T09:16:32;3.22;;;2.45;;
58139;SDS011;53185;47.378;18.922;2023-07-09T09:19:01;6.03;;;2.65;;
58139;SDS011;53185;47.378;18.922;2023-07-09T09:27:30;4.65;;;2.25;;
58139;SDS011;53185;47.378;18.922;2023-07-09T09:29:58;4.68;;;2.85;;
58139;SDS011;53185;47.378;18.922;2023-07-09T09:32:26;2.97;;;2.70;;
58139;SDS011;53185;47.378;18.922;2023-07-09T09:34:56;4.72;;;2.40;;
58139;SDS011;53185;47.378;18.922;2023-07-09T09:37:29;3.42;;;3.12;;
58139;SDS011;53185;47.378;18.922;2023-07-09T09:39:58;6.07;;;2.83;;
58139;SDS011;53185;47.378;18.922;2023-07-09T09:42:43;2.92;;;2.30;;
58139;SDS011;53185;47.378;18.922;2023-07-09T09:45:16;5.82;;;3.05;;
58139;SDS011;53185;47.378;18.922;2023-07-09T09:51:18;6.65;;;4.55;;
58139;SDS011;53185;47.378;18.922;2023-07-09T09:57:18;9.15;;;2.78;;
58139;SDS011;53185;47.378;18.922;2023-07-09T09:59:50;3.12;;;2.58;;
58139;SDS011;53185;47.378;18.922;2023-07-09T10:05:51;4.68;;;2.60;;
58139;SDS011;53185;47.378;18.922;2023-07-09T10:11:31;15.18;;;5.57;;
58139;SDS011;53185;47.378;18.922;2023-07-09T10:28:09;4.32;;;2.80;;
58139;SDS011;53185;47.378;18.922;2023-07-09T10:31:07;9.10;;;3.62;;
58139;SDS011;53185;47.378;18.922;2023-07-09T10:34:14;3.92;;;3.12;;
58139;SDS011;53185;47.378;18.922;2023-07-09T10:40:04;4.07;;;2.83;;
58139;SDS011;53185;47.378;18.922;2023-07-09T10:42:45;4.97;;;2.83;;
58139;SDS011;53185;47.378;18.922;2023-07-09T10:45:18;4.78;;;3.90;;
58139;SDS011;53185;47.378;18.922;2023-07-09T10:48:33;4.10;;;3.08;;
58139;SDS011;53185;47.378;18.922;2023-07-09T10:54:55;2.80;;;2.28;;
58139;SDS011;53185;47.378;18.922;2023-07-09T11:00:59;4.93;;;3.20;;
58139;SDS011;53185;47.378;18.922;2023-07-09T11:06:17;5.90;;;3.60;;
58139;SDS011;53185;47.378;18.922;2023-07-09T11:08:48;6.82;;;2.70;;
58139;SDS011;53185;47.378;18.922;2023-07-09T11:11:28;8.05;;;3.00;;
58139;SDS011;53185;47.378;18.922;2023-07-09T11:14:32;3.47;;;2.65;;
58139;SDS011;53185;47.378;18.922;2023-07-09T11:17:06;7.55;;;3.20;;
58139;SDS011;53185;47.378;18.922;2023-07-09T11:19:42;9.50;;;3.07;;
58139;SDS011;53185;47.378;18.922;2023-07-09T11:28:11;5.80;;;2.65;;
58139;SDS011;53185;47.378;18.922;2023-07-09T11:34:14;13.77;;;7.20;;
58139;SDS011;53185;47.378;18.922;2023-07-09T11:40:06;10.27;;;5.00;;
58139;SDS011;53185;47.378;18.922;2023-07-09T11:42:57;22.13;;;7.82;;
58139;SDS011;53185;47.378;18.922;2023-07-09T11:45:32;4.15;;;3.10;;
58139;SDS011;53185;47.378;18.922;2023-07-09T11:48:18;4.62;;;2.92;;
58139;SDS011;53185;47.378;18.922;2023-07-09T11:50:51;7.28;;;3.17;;
58139;SDS011;53185;47.378;18.922;2023-07-09T11:56:25;4.32;;;2.75;;
58139;SDS011;53185;47.378;18.922;2023-07-09T11:58:56;4.40;;;2.62;;
58139;SDS011;53185;47.378;18.922;2023-07-09T12:01:26;4.68;;;2.67;;
58139;SDS011;53185;47.378;18.922;2023-07-09T12:04:01;4.55;;;3.08;;
58139;SDS011;53185;47.378;18.922;2023-07-09T12:06:29;4.78;;;3.00;;
58139;SDS011;53185;47.378;18.922;2023-07-09T12:08:58;4.55;;;3.40;;
58139;SDS011;53185;47.378;18.922;2023-07-09T12:18:09;3.72;;;3.00;;
58139;SDS011;53185;47.378;18.922;2023-07-09T12:20:39;7.68;;;3.05;;
58139;SDS011;53185;47.378;18.922;2023-07-09T12:23:28;4.05;;;2.90;;
58139;SDS011;53185;47.378;18.922;2023-07-09T12:26:00;8.82;;;7.00;;
58139;SDS011;53185;47.378;18.922;2023-07-09T12:32:02;5.47;;;3.10;;
58139;SDS011;53185;47.378;18.922;2023-07-09T12:38:02;7.78;;;2.80;;
58139;SDS011;53185;47.378;18.922;2023-07-09T12:40:30;5.57;;;3.03;;
58139;SDS011;53185;47.378;18.922;2023-07-09T12:45:27;13.55;;;3.33;;
58139;SDS011;53185;47.378;18.922;2023-07-09T12:47:55;4.45;;;2.92;;
58139;SDS011;53185;47.378;18.922;2023-07-09T12:50:30;4.35;;;3.12;;
58139;SDS011;53185;47.378;18.922;2023-07-09T12:53:01;3.22;;;2.83;;
58139;SDS011;53185;47.378;18.922;2023-07-09T12:55:36;4.85;;;3.00;;
58139;SDS011;53185;47.378;18.922;2023-07-09T12:58:10;3.45;;;2.78;;
58139;SDS011;53185;47.378;18.922;2023-07-09T13:00:49;5.72;;;3.20;;
58139;SDS011;53185;47.378;18.922;2023-07-09T13:06:54;4.85;;;2.92;;
58139;SDS011;53185;47.378;18.922;2023-07-09T13:09:27;4.80;;;3.35;;
58139;SDS011;53185;47.378;18.922;2023-07-09T13:11:57;5.65;;;3.17;;
58139;SDS011;53185;47.378;18.922;2023-07-09T13:18:02;6.50;;;3.00;;
58139;SDS011;53185;47.378;18.922;2023-07-09T13:20:32;6.87;;;2.85;;
58139;SDS011;53185;47.378;18.922;2023-07-09T13:26:34;8.10;;;3.28;;
58139;SDS011;53185;47.378;18.922;2023-07-09T13:32:32;5.93;;;2.90;;
58139;SDS011;53185;47.378;18.922;2023-07-09T13:35:02;5.55;;;3.00;;
58139;SDS011;53185;47.378;18.922;2023-07-09T13:37:31;3.50;;;2.72;;
58139;SDS011;53185;47.378;18.922;2023-07-09T13:39:59;3.75;;;2.58;;
58139;SDS011;53185;47.378;18.922;2023-07-09T13:42:27;5.53;;;3.28;;
58139;SDS011;53185;47.378;18.922;2023-07-09T13:44:54;6.97;;;3.10;;
58139;SDS011;53185;47.378;18.922;2023-07-09T13:47:23;5.45;;;2.78;;
58139;SDS011;53185;47.378;18.922;2023-07-09T13:49:51;4.95;;;3.22;;
58139;SDS011;53185;47.378;18.922;2023-07-09T13:52:19;5.93;;;3.10;;
58139;SDS011;53185;47.378;18.922;2023-07-09T13:54:50;4.20;;;3.70;;
58139;SDS011;53185;47.378;18.922;2023-07-09T13:57:19;6.57;;;3.20;;
58139;SDS011;53185;47.378;18.922;2023-07-09T13:59:50;3.35;;;2.92;;
58139;SDS011;53185;47.378;18.922;2023-07-09T14:04:52;4.97;;;2.95;;
58139;SDS011;53185;47.378;18.922;2023-07-09T14:07:29;10.10;;;2.95;;
58139;SDS011;53185;47.378;18.922;2023-07-09T14:10:01;6.20;;;2.70;;
58139;SDS011;53185;47.378;18.922;2023-07-09T14:12:30;3.62;;;2.92;;
58139;SDS011;53185;47.378;18.922;2023-07-09T14:15:00;4.47;;;3.05;;
58139;SDS011;53185;47.378;18.922;2023-07-09T14:17:34;5.43;;;3.08;;
58139;SDS011;53185;47.378;18.922;2023-07-09T14:20:02;7.35;;;4.18;;
58139;SDS011;53185;47.378;18.922;2023-07-09T14:22:36;7.80;;;3.40;;
58139;SDS011;53185;47.378;18.922;2023-07-09T14:25:04;4.23;;;3.17;;
58139;SDS011;53185;47.378;18.922;2023-07-09T14:27:34;7.20;;;3.20;;
58139;SDS011;53185;47.378;18.922;2023-07-09T14:30:01;4.22;;;2.85;;
58139;SDS011;53185;47.378;18.922;2023-07-09T14:32:33;7.30;;;2.92;;
58139;SDS011;53185;47.378;18.922;2023-07-09T14:35:09;7.10;;;3.35;;
58139;SDS011;53185;47.378;18.922;2023-07-09T14:37:39;3.80;;;3.40;;
58139;SDS011;53185;47.378;18.922;2023-07-09T14:40:07;7.85;;;3.55;;
58139;SDS011;53185;47.378;18.922;2023-07-09T14:42:37;5.68;;;2.90;;
58139;SDS011;53185;47.378;18.922;2023-07-09T14:45:27;4.35;;;3.10;;
58139;SDS011;53185;47.378;18.922;2023-07-09T14:47:59;6.05;;;3.22;;
58139;SDS011;53185;47.378;18.922;2023-07-09T14:50:27;3.50;;;2.72;;
58139;SDS011;53185;47.378;18.922;2023-07-09T14:52:54;5.45;;;3.10;;
58139;SDS011;53185;47.378;18.922;2023-07-09T14:55:22;4.45;;;2.78;;
58139;SDS011;53185;47.378;18.922;2023-07-09T14:57:54;5.47;;;3.00;;
58139;SDS011;53185;47.378;18.922;2023-07-09T15:00:22;6.28;;;3.00;;
58139;SDS011;53185;47.378;18.922;2023-07-09T15:02:51;8.07;;;3.47;;
58139;SDS011;53185;47.378;18.922;2023-07-09T15:05:21;13.73;;;5.62;;
58139;SDS011;53185;47.378;18.922;2023-07-09T15:07:51;5.78;;;2.80;;
58139;SDS011;53185;47.378;18.922;2023-07-09T15:10:23;3.70;;;2.87;;
58139;SDS011;53185;47.378;18.922;2023-07-09T15:12:54;4.65;;;3.00;;
58139;SDS011;53185;47.378;18.922;2023-07-09T15:15:23;4.87;;;3.40;;
58139;SDS011;53185;47.378;18.922;2023-07-09T15:17:52;4.00;;;3.30;;
58139;SDS011;53185;47.378;18.922;2023-07-09T15:20:23;6.80;;;2.78;;
58139;SDS011;53185;47.378;18.922;2023-07-09T15:22:51;6.97;;;3.10;;
58139;SDS011;53185;47.378;18.922;2023-07-09T15:25:20;6.33;;;3.63;;
58139;SDS011;53185;47.378;18.922;2023-07-09T15:27:50;4.05;;;3.05;;
58139;SDS011;53185;47.378;18.922;2023-07-09T15:30:19;4.40;;;3.15;;
58139;SDS011;53185;47.378;18.922;2023-07-09T15:32:54;3.37;;;2.85;;
58139;SDS011;53185;47.378;18.922;2023-07-09T15:35:23;4.22;;;2.95;;
58139;SDS011;53185;47.378;18.922;2023-07-09T15:37:53;4.97;;;3.00;;
58139;SDS011;53185;47.378;18.922;2023-07-09T15:40:22;7.28;;;3.00;;
58139;SDS011;53185;47.378;18.922;2023-07-09T15:42:54;3.37;;;2.97;;
58139;SDS011;53185;47.378;18.922;2023-07-09T15:45:24;3.62;;;2.65;;
58139;SDS011;53185;47.378;18.922;2023-07-09T15:47:53;5.45;;;3.20;;
58139;SDS011;53185;47.378;18.922;2023-07-09T15:52:53;5.25;;;3.28;;
58139;SDS011;53185;47.378;18.922;2023-07-09T15:55:23;5.53;;;3.00;;
58139;SDS011;53185;47.378;18.922;2023-07-09T15:57:53;3.35;;;2.78;;
58139;SDS011;53185;47.378;18.922;2023-07-09T16:00:24;3.03;;;2.62;;
58139;SDS011;53185;47.378;18.922;2023-07-09T16:02:55;4.03;;;3.03;;
58139;SDS011;53185;47.378;18.922;2023-07-09T16:05:43;4.50;;;3.20;;
58139;SDS011;53185;47.378;18.922;2023-07-09T16:08:12;10.10;;;3.30;;
58139;SDS011;53185;47.378;18.922;2023-07-09T16:10:39;3.53;;;2.80;;
58139;SDS011;53185;47.378;18.922;2023-07-09T16:13:14;4.45;;;3.15;;
58139;SDS011;53185;47.378;18.922;2023-07-09T16:15:46;6.18;;;3.75;;
58139;SDS011;53185;47.378;18.922;2023-07-09T16:18:17;9.15;;;3.03;;
58139;SDS011;53185;47.378;18.922;2023-07-09T16:20:45;7.32;;;3.50;;
58139;SDS011;53185;47.378;18.922;2023-07-09T16:23:18;8.33;;;5.40;;
58139;SDS011;53185;47.378;18.922;2023-07-09T16:25:48;6.50;;;5.15;;
58139;SDS011;53185;47.378;18.922;2023-07-09T16:28:17;6.30;;;4.37;;
58139;SDS011;53185;47.378;18.922;2023-07-09T16:30:48;5.18;;;2.72;;
58139;SDS011;53185;47.378;18.922;2023-07-09T16:33:21;4.55;;;2.90;;
58139;SDS011;53185;47.378;18.922;2023-07-09T16:35:50;5.20;;;3.00;;
58139;SDS011;53185;47.378;18.922;2023-07-09T16:38:18;4.87;;;2.55;;
58139;SDS011;53185;47.378;18.922;2023-07-09T16:40:46;6.05;;;2.97;;
58139;SDS011;53185;47.378;18.922;2023-07-09T16:43:14;7.53;;;3.20;;
58139;SDS011;53185;47.378;18.922;2023-07-09T16:45:44;6.18;;;3.17;;
58139;SDS011;53185;47.378;18.922;2023-07-09T16:48:16;5.32;;;2.80;;
58139;SDS011;53185;47.378;18.922;2023-07-09T16:50:44;4.60;;;3.12;;
58139;SDS011;53185;47.378;18.922;2023-07-09T16:53:14;5.07;;;3.17;;
58139;SDS011;53185;47.378;18.922;2023-07-09T16:55:44;4.25;;;3.22;;
58139;SDS011;53185;47.378;18.922;2023-07-09T16:58:20;5.95;;;4.40;;
58139;SDS011;53185;47.378;18.922;2023-07-09T17:01:03;9.50;;;3.40;;
58139;SDS011;53185;47.378;18.922;2023-07-09T17:03:32;5.50;;;3.55;;
58139;SDS011;53185;47.378;18.922;2023-07-09T17:06:00;7.95;;;3.28;;
58139;SDS011;53185;47.378;18.922;2023-07-09T17:08:27;6.40;;;3.47;;
58139;SDS011;53185;47.378;18.922;2023-07-09T17:10:55;5.80;;;3.10;;
58139;SDS011;53185;47.378;18.922;2023-07-09T17:13:26;4.07;;;3.05;;
58139;SDS011;53185;47.378;18.922;2023-07-09T17:15:56;6.72;;;3.28;;
58139;SDS011;53185;47.378;18.922;2023-07-09T17:18:25;4.90;;;3.00;;
58139;SDS011;53185;47.378;18.922;2023-07-09T17:20:56;4.40;;;2.78;;